sensor_id;sensor_type;location;lat;lon;timestamp;pressure;altitude;pressure_sealevel;temperature;humidity
63946;BME280;50122;56.330;43.838;2023-08-07T00:02:02;101074.91;;;19.58;86.18
63946;BME280;50122;56.330;43.838;2023-08-07T00:04:30;101075.03;;;19.56;86.01
63946;BME280;50122;56.330;43.838;2023-08-07T00:06:57;101072.44;;;19.55;86.11
63946;BME280;50122;56.330;43.838;2023-08-07T00:09:24;101067.94;;;19.55;86.20
63946;BME280;50122;56.330;43.838;2023-08-07T00:11:51;101069.78;;;19.55;86.47
63946;BME280;50122;56.330;43.838;2023-08-07T00:14:17;101078.88;;;19.52;86.42
63946;BME280;50122;56.330;43.838;2023-08-07T00:16:44;101073.50;;;19.52;86.46
63946;BME280;50122;56.330;43.838;2023-08-07T00:19:11;101068.38;;;19.49;86.56
63946;BME280;50122;56.330;43.838;2023-08-07T00:21:39;101069.31;;;19.48;86.79
63946;BME280;50122;56.330;43.838;2023-08-07T00:24:06;101064.94;;;19.47;86.81
63946;BME280;50122;56.330;43.838;2023-08-07T00:26:33;101072.22;;;19.45;86.58
63946;BME280;50122;56.330;43.838;2023-08-07T00:28:59;101077.59;;;19.45;87.03
63946;BME280;50122;56.330;43.838;2023-08-07T00:31:26;101070.59;;;19.42;86.73
63946;BME280;50122;56.330;43.838;2023-08-07T00:33:58;101072.44;;;19.42;87.07
63946;BME280;50122;56.330;43.838;2023-08-07T00:36:26;101068.91;;;19.41;86.88
63946;BME280;50122;56.330;43.838;2023-08-07T00:38:55;101062.78;;;19.39;87.00
63946;BME280;50122;56.330;43.838;2023-08-07T00:41:22;101059.16;;;19.40;87.53
63946;BME280;50122;56.330;43.838;2023-08-07T00:43:51;101072.66;;;19.39;87.63
63946;BME280;50122;56.330;43.838;2023-08-07T00:46:18;101059.25;;;19.39;87.75
63946;BME280;50122;56.330;43.838;2023-08-07T00:48:45;101057.63;;;19.36;87.68
63946;BME280;50122;56.330;43.838;2023-08-07T00:51:14;101067.50;;;19.36;87.93
63946;BME280;50122;56.330;43.838;2023-08-07T00:53:41;101064.81;;;19.36;88.25
63946;BME280;50122;56.330;43.838;2023-08-07T00:56:08;101072.09;;;19.34;88.21
63946;BME280;50122;56.330;43.838;2023-08-07T00:58:36;101062.38;;;19.33;88.32
63946;BME280;50122;56.330;43.838;2023-08-07T01:01:04;101059.78;;;19.31;88.32
63946;BME280;50122;56.330;43.838;2023-08-07T01:03:31;101065.22;;;19.30;88.59
63946;BME280;50122;56.330;43.838;2023-08-07T01:05:58;101062.75;;;19.26;88.58
63946;BME280;50122;56.330;43.838;2023-08-07T01:08:25;101068.00;;;19.28;88.49
63946;BME280;50122;56.330;43.838;2023-08-07T01:13:41;101069.00;;;19.27;88.69
63946;BME280;50122;56.330;43.838;2023-08-07T01:16:18;101066.31;;;19.27;88.54
63946;BME280;50122;56.330;43.838;2023-08-07T01:18:48;101063.63;;;19.27;88.95
63946;BME280;50122;56.330;43.838;2023-08-07T01:21:19;101061.06;;;19.25;88.83
63946;BME280;50122;56.330;43.838;2023-08-07T01:23:47;101068.88;;;19.29;88.90
63946;BME280;50122;56.330;43.838;2023-08-07T01:26:18;101065.31;;;19.28;89.39
63946;BME280;50122;56.330;43.838;2023-08-07T01:31:31;101068.00;;;19.28;89.45
63946;BME280;50122;56.330;43.838;2023-08-07T01:34:05;101063.53;;;19.29;89.47
63946;BME280;50122;56.330;43.838;2023-08-07T01:36:35;101065.31;;;19.28;89.88
63946;BME280;50122;56.330;43.838;2023-08-07T01:39:04;101063.53;;;19.29;89.62
63946;BME280;50122;56.330;43.838;2023-08-07T01:41:33;101065.31;;;19.28;89.87
63946;BME280;50122;56.330;43.838;2023-08-07T01:44:01;101068.88;;;19.29;89.81
63946;BME280;50122;56.330;43.838;2023-08-07T01:46:29;101064.38;;;19.29;89.77
63946;BME280;50122;56.330;43.838;2023-08-07T01:48:56;101060.84;;;19.29;89.66
63946;BME280;50122;56.330;43.838;2023-08-07T01:51:25;101058.28;;;19.27;89.75
63946;BME280;50122;56.330;43.838;2023-08-07T01:53:51;101055.69;;;19.25;89.75
63946;BME280;50122;56.330;43.838;2023-08-07T01:56:19;101060.06;;;19.26;89.71
63946;BME280;50122;56.330;43.838;2023-08-07T01:58:45;101049.34;;;19.26;89.45
63946;BME280;50122;56.330;43.838;2023-08-07T02:01:12;101056.34;;;19.29;89.72
63946;BME280;50122;56.330;43.838;2023-08-07T02:03:39;101052.81;;;19.29;89.75
63946;BME280;50122;56.330;43.838;2023-08-07T02:06:06;101049.91;;;19.32;89.83
63946;BME280;50122;56.330;43.838;2023-08-07T02:08:32;101057.84;;;19.33;89.90
63946;BME280;50122;56.330;43.838;2023-08-07T02:10:59;101053.34;;;19.34;89.67
63946;BME280;50122;56.330;43.838;2023-08-07T02:13:28;101049.69;;;19.35;89.66
63946;BME280;50122;56.330;43.838;2023-08-07T02:15:54;101050.44;;;19.37;89.53
63946;BME280;50122;56.330;43.838;2023-08-07T02:18:23;101049.38;;;19.39;89.62
63946;BME280;50122;56.330;43.838;2023-08-07T02:20:54;101055.50;;;19.41;89.33
63946;BME280;50122;56.330;43.838;2023-08-07T02:23:20;101050.78;;;19.45;89.55
63946;BME280;50122;56.330;43.838;2023-08-07T02:25:48;101051.66;;;19.46;89.73
63946;BME280;50122;56.330;43.838;2023-08-07T02:28:15;101057.03;;;19.46;89.49
63946;BME280;50122;56.330;43.838;2023-08-07T02:30:45;101059.47;;;19.49;89.41
63946;BME280;50122;56.330;43.838;2023-08-07T02:33:13;101048.66;;;19.50;89.44
63946;BME280;50122;56.330;43.838;2023-08-07T02:35:40;101053.78;;;19.53;89.33
63946;BME280;50122;56.330;43.838;2023-08-07T02:38:07;101055.53;;;19.54;89.25
63946;BME280;50122;56.330;43.838;2023-08-07T02:40:33;101052.72;;;19.56;89.21
63946;BME280;50122;56.330;43.838;2023-08-07T02:43:00;101055.31;;;19.57;89.16
63946;BME280;50122;56.330;43.838;2023-08-07T02:45:27;101058.72;;;19.59;89.14
63946;BME280;50122;56.330;43.838;2023-08-07T02:47:54;101052.28;;;19.62;88.75
63946;BME280;50122;56.330;43.838;2023-08-07T02:50:24;101053.03;;;19.64;88.83
63946;BME280;50122;56.330;43.838;2023-08-07T02:52:53;101059.16;;;19.66;89.03
63946;BME280;50122;56.330;43.838;2023-08-07T02:55:19;101058.94;;;19.69;89.03
63946;BME280;50122;56.330;43.838;2023-08-07T02:57:47;101064.19;;;19.71;88.96
63946;BME280;50122;56.330;43.838;2023-08-07T03:00:14;101062.16;;;19.74;88.77
63946;BME280;50122;56.330;43.838;2023-08-07T03:02:41;101061.94;;;19.77;88.85
63946;BME280;50122;56.330;43.838;2023-08-07T03:05:08;101066.25;;;19.80;88.61
63946;BME280;50122;56.330;43.838;2023-08-07T03:07:35;101063.28;;;19.85;88.41
63946;BME280;50122;56.330;43.838;2023-08-07T03:10:02;101062.16;;;19.87;88.31
63946;BME280;50122;56.330;43.838;2023-08-07T03:12:30;101069.03;;;19.91;88.22
63946;BME280;50122;56.330;43.838;2023-08-07T03:14:57;101055.50;;;19.93;88.35
63946;BME280;50122;56.330;43.838;2023-08-07T03:17:26;101068.53;;;19.99;88.24
63946;BME280;50122;56.330;43.838;2023-08-07T03:19:57;101069.13;;;20.03;88.29
63946;BME280;50122;56.330;43.838;2023-08-07T03:22:26;101060.03;;;20.05;87.71
63946;BME280;50122;56.330;43.838;2023-08-07T03:24:53;101058.84;;;20.09;87.81
63946;BME280;50122;56.330;43.838;2023-08-07T03:27:20;101057.72;;;20.12;87.49
63946;BME280;50122;56.330;43.838;2023-08-07T03:29:47;101068.06;;;20.18;87.24
63946;BME280;50122;56.330;43.838;2023-08-07T03:32:13;101066.88;;;20.22;87.05
63946;BME280;50122;56.330;43.838;2023-08-07T03:34:43;101066.53;;;20.27;86.90
63946;BME280;50122;56.330;43.838;2023-08-07T03:37:10;101068.75;;;20.33;86.39
63946;BME280;50122;56.330;43.838;2023-08-07T03:39:36;101064.16;;;20.35;86.19
63946;BME280;50122;56.330;43.838;2023-08-07T03:42:04;101067.22;;;20.42;85.89
63946;BME280;50122;56.330;43.838;2023-08-07T03:44:30;101071.28;;;20.47;86.02
63946;BME280;50122;56.330;43.838;2023-08-07T03:46:59;101063.00;;;20.51;85.27
63946;BME280;50122;56.330;43.838;2023-08-07T03:49:27;101067.91;;;20.57;84.82
63946;BME280;50122;56.330;43.838;2023-08-07T03:51:56;101064.03;;;20.61;84.68
63946;BME280;50122;56.330;43.838;2023-08-07T03:54:25;101063.81;;;20.64;84.26
63946;BME280;50122;56.330;43.838;2023-08-07T03:56:52;101062.53;;;20.70;84.22
63946;BME280;50122;56.330;43.838;2023-08-07T03:59:20;101060.50;;;20.73;83.93
63946;BME280;50122;56.330;43.838;2023-08-07T04:01:46;101058.31;;;20.78;83.85
63946;BME280;50122;56.330;43.838;2023-08-07T04:04:14;101059.91;;;20.81;83.79
63946;BME280;50122;56.330;43.838;2023-08-07T04:06:41;101062.25;;;20.86;83.50
63946;BME280;50122;56.330;43.838;2023-08-07T04:09:07;101061.16;;;20.88;83.20
63946;BME280;50122;56.330;43.838;2023-08-07T04:11:36;101057.81;;;20.97;82.90
63946;BME280;50122;56.330;43.838;2023-08-07T04:14:06;101059.06;;;21.05;82.33
63946;BME280;50122;56.330;43.838;2023-08-07T04:16:33;101060.31;;;21.12;81.81
63946;BME280;50122;56.330;43.838;2023-08-07T04:19:00;101064.13;;;21.21;81.42
63946;BME280;50122;56.330;43.838;2023-08-07T04:21:26;101058.38;;;21.25;81.15
63946;BME280;50122;56.330;43.838;2023-08-07T04:23:53;101042.97;;;21.27;81.11
63946;BME280;50122;56.330;43.838;2023-08-07T04:26:23;101055.38;;;21.41;80.54
63946;BME280;50122;56.330;43.838;2023-08-07T04:28:51;101059.16;;;21.50;79.99
